KGON/GON METAR and TAF weather

Enter ICAO airport designator
Station Type Date Time Source
KGON METAR 2022/01/29 01:56 UTC NOAA

KGON 290156Z 03008KT 4SM -SN BR BKN031 OVC039 M01/M03 A3003 RMK AO2 SNB51 SLP169 P0000 T10061028


Station Type Date Time Source
KGON Decoded METAR 2022/01/29 01:56 UTC NOAA

GROTON/NEW LONDON AIRPORT , CT, United States (KGON) 41-20N 72-03W 3M
Jan 28, 2022 - 08:56 PM EST / 2022.01.29 0156 UTC
Wind: from the NNE (030 degrees) at 9 MPH (8 KT):0
Visibility: 4 mile(s):0
Sky conditions: overcast
Weather: light snow; mist
Precipitation last hour: A trace
Temperature: 30.9 F (-0.6 C)
Windchill: 23 F (-5 C):1
Dew Point: 27.0 F (-2.8 C)
Relative Humidity: 85%
Pressure (altimeter): 30.03 in. Hg (1016 hPa)
ob: KGON 290156Z 03008KT 4SM -SN BR BKN031 OVC039 M01/M03 A3003 RMK AO2 SNB51 SLP169 P0000 T10061028
cycle: 2

Station Type Date Time Source
KGON TAF 2022/01/29 00:09 UTC NOAA

TAF KGON 290007Z 2900/2924 03005KT P6SM VCSH SCT020 OVC100
FM290300 03010G17KT 2SM -SN BR SCT008 OVC012
FM290600 03015G25KT 1/2SM SN FZFG OVC008
FM290900 02018G32KT 1/4SM +SN BLSN FZFG OVC006
FM291300 36025G44KT 1/4SM +SN BLSN FZFG OVC005
FM292000 33030G42KT 1/2SM SN BLSN FZFG OVC010
FM292200 32028G38KT 5SM BLSN BKN025 BKN035

Example: see airport list